sensor_id;sensor_type;location;lat;lon;timestamp;temperature;humidity
19088;DHT22;9676;50.916;13.352;2022-09-09T00:02:02;17.80;99.90
19088;DHT22;9676;50.916;13.352;2022-09-09T00:05:00;17.80;99.90
19088;DHT22;9676;50.916;13.352;2022-09-09T00:07:56;17.80;99.90
19088;DHT22;9676;50.916;13.352;2022-09-09T00:10:55;17.80;99.90
19088;DHT22;9676;50.916;13.352;2022-09-09T00:13:51;17.80;99.90
19088;DHT22;9676;50.916;13.352;2022-09-09T00:16:44;17.80;99.90
19088;DHT22;9676;50.916;13.352;2022-09-09T00:19:41;17.80;99.90
19088;DHT22;9676;50.916;13.352;2022-09-09T00:22:41;17.80;99.90
19088;DHT22;9676;50.916;13.352;2022-09-09T00:25:42;17.80;99.90
19088;DHT22;9676;50.916;13.352;2022-09-09T00:28:48;17.80;99.90
19088;DHT22;9676;50.916;13.352;2022-09-09T00:31:41;17.80;99.90
19088;DHT22;9676;50.916;13.352;2022-09-09T00:34:32;17.80;99.90
19088;DHT22;9676;50.916;13.352;2022-09-09T00:37:25;17.80;99.90
19088;DHT22;9676;50.916;13.352;2022-09-09T00:40:23;17.80;99.90
19088;DHT22;9676;50.916;13.352;2022-09-09T00:43:24;17.80;99.90
19088;DHT22;9676;50.916;13.352;2022-09-09T00:46:39;17.80;99.90
19088;DHT22;9676;50.916;13.352;2022-09-09T00:49:39;17.80;99.90
19088;DHT22;9676;50.916;13.352;2022-09-09T00:52:42;17.80;99.90
19088;DHT22;9676;50.916;13.352;2022-09-09T00:55:41;17.80;99.90
19088;DHT22;9676;50.916;13.352;2022-09-09T00:58:35;17.80;99.90
19088;DHT22;9676;50.916;13.352;2022-09-09T01:01:26;17.80;99.90
19088;DHT22;9676;50.916;13.352;2022-09-09T01:04:20;17.80;99.90
19088;DHT22;9676;50.916;13.352;2022-09-09T01:07:17;17.80;99.90
19088;DHT22;9676;50.916;13.352;2022-09-09T01:10:11;17.80;99.90
19088;DHT22;9676;50.916;13.352;2022-09-09T01:13:13;17.80;99.90
19088;DHT22;9676;50.916;13.352;2022-09-09T01:16:09;17.80;99.90
19088;DHT22;9676;50.916;13.352;2022-09-09T01:19:03;17.80;99.90
19088;DHT22;9676;50.916;13.352;2022-09-09T01:22:03;17.80;99.90
19088;DHT22;9676;50.916;13.352;2022-09-09T01:25:26;17.80;99.90
19088;DHT22;9676;50.916;13.352;2022-09-09T01:28:35;17.80;99.90
19088;DHT22;9676;50.916;13.352;2022-09-09T01:31:32;17.80;99.90
19088;DHT22;9676;50.916;13.352;2022-09-09T01:34:28;17.80;99.90
19088;DHT22;9676;50.916;13.352;2022-09-09T01:37:19;17.80;99.90
19088;DHT22;9676;50.916;13.352;2022-09-09T01:40:09;17.70;99.90
19088;DHT22;9676;50.916;13.352;2022-09-09T01:42:59;17.70;99.90
19088;DHT22;9676;50.916;13.352;2022-09-09T01:45:53;17.70;99.90
19088;DHT22;9676;50.916;13.352;2022-09-09T01:48:45;17.70;99.90
19088;DHT22;9676;50.916;13.352;2022-09-09T01:51:36;17.70;99.90
19088;DHT22;9676;50.916;13.352;2022-09-09T01:54:31;17.70;99.90
19088;DHT22;9676;50.916;13.352;2022-09-09T01:57:30;17.70;99.90
19088;DHT22;9676;50.916;13.352;2022-09-09T02:00:23;17.80;99.90
19088;DHT22;9676;50.916;13.352;2022-09-09T02:03:21;17.70;99.90
19088;DHT22;9676;50.916;13.352;2022-09-09T02:06:35;17.70;99.90
19088;DHT22;9676;50.916;13.352;2022-09-09T02:09:40;17.80;99.90
19088;DHT22;9676;50.916;13.352;2022-09-09T02:12:31;17.80;99.90
19088;DHT22;9676;50.916;13.352;2022-09-09T02:15:28;17.80;99.90
19088;DHT22;9676;50.916;13.352;2022-09-09T02:18:26;17.80;99.90
19088;DHT22;9676;50.916;13.352;2022-09-09T02:21:18;17.80;99.90
19088;DHT22;9676;50.916;13.352;2022-09-09T02:24:08;17.80;99.90
19088;DHT22;9676;50.916;13.352;2022-09-09T02:27:07;17.80;99.90
19088;DHT22;9676;50.916;13.352;2022-09-09T02:29:59;17.80;99.90
19088;DHT22;9676;50.916;13.352;2022-09-09T02:32:58;17.80;99.90
19088;DHT22;9676;50.916;13.352;2022-09-09T02:36:06;17.80;99.90
19088;DHT22;9676;50.916;13.352;2022-09-09T02:38:57;17.80;99.90
19088;DHT22;9676;50.916;13.352;2022-09-09T02:41:49;17.80;99.90
19088;DHT22;9676;50.916;13.352;2022-09-09T02:44:47;17.80;99.90
19088;DHT22;9676;50.916;13.352;2022-09-09T02:47:40;17.80;99.90
19088;DHT22;9676;50.916;13.352;2022-09-09T02:50:36;17.80;99.90
19088;DHT22;9676;50.916;13.352;2022-09-09T02:53:39;17.80;99.90
19088;DHT22;9676;50.916;13.352;2022-09-09T02:56:33;17.80;99.90
19088;DHT22;9676;50.916;13.352;2022-09-09T02:59:27;17.80;99.90
19088;DHT22;9676;50.916;13.352;2022-09-09T03:02:17;17.80;99.90
19088;DHT22;9676;50.916;13.352;2022-09-09T03:05:12;17.70;99.90
19088;DHT22;9676;50.916;13.352;2022-09-09T03:08:02;17.70;99.90
19088;DHT22;9676;50.916;13.352;2022-09-09T03:10:54;17.70;99.90
19088;DHT22;9676;50.916;13.352;2022-09-09T03:13:45;17.70;99.90
19088;DHT22;9676;50.916;13.352;2022-09-09T03:16:36;17.70;99.90
19088;DHT22;9676;50.916;13.352;2022-09-09T03:19:27;17.70;99.90
19088;DHT22;9676;50.916;13.352;2022-09-09T03:22:17;17.70;99.90
19088;DHT22;9676;50.916;13.352;2022-09-09T03:25:07;17.70;99.90
19088;DHT22;9676;50.916;13.352;2022-09-09T03:27:59;17.70;99.90
19088;DHT22;9676;50.916;13.352;2022-09-09T03:30:49;17.70;99.90
19088;DHT22;9676;50.916;13.352;2022-09-09T03:33:40;17.60;99.90
19088;DHT22;9676;50.916;13.352;2022-09-09T03:36:33;17.60;99.90
19088;DHT22;9676;50.916;13.352;2022-09-09T03:39:22;17.70;99.90
19088;DHT22;9676;50.916;13.352;2022-09-09T03:42:12;17.60;99.90
19088;DHT22;9676;50.916;13.352;2022-09-09T03:45:10;17.60;99.90
19088;DHT22;9676;50.916;13.352;2022-09-09T03:48:02;17.60;99.90
19088;DHT22;9676;50.916;13.352;2022-09-09T03:50:54;17.60;99.90
19088;DHT22;9676;50.916;13.352;2022-09-09T03:53:45;17.60;99.90
19088;DHT22;9676;50.916;13.352;2022-09-09T03:56:36;17.60;99.90
19088;DHT22;9676;50.916;13.352;2022-09-09T03:59:25;17.60;99.90
19088;DHT22;9676;50.916;13.352;2022-09-09T04:02:16;17.60;99.90
19088;DHT22;9676;50.916;13.352;2022-09-09T04:05:06;17.60;99.90
19088;DHT22;9676;50.916;13.352;2022-09-09T04:07:58;17.60;99.90
19088;DHT22;9676;50.916;13.352;2022-09-09T04:10:48;17.60;99.90
19088;DHT22;9676;50.916;13.352;2022-09-09T04:13:38;17.60;99.90
19088;DHT22;9676;50.916;13.352;2022-09-09T04:16:30;17.70;99.90
19088;DHT22;9676;50.916;13.352;2022-09-09T04:19:21;17.70;99.90
19088;DHT22;9676;50.916;13.352;2022-09-09T04:22:11;17.70;99.90
19088;DHT22;9676;50.916;13.352;2022-09-09T04:25:00;17.80;99.90
19088;DHT22;9676;50.916;13.352;2022-09-09T04:27:53;17.80;99.90
19088;DHT22;9676;50.916;13.352;2022-09-09T04:30:45;17.80;99.90
19088;DHT22;9676;50.916;13.352;2022-09-09T04:33:35;17.80;99.90
19088;DHT22;9676;50.916;13.352;2022-09-09T04:36:30;17.90;99.90
19088;DHT22;9676;50.916;13.352;2022-09-09T04:39:22;17.90;99.90
19088;DHT22;9676;50.916;13.352;2022-09-09T04:42:12;17.90;99.90
19088;DHT22;9676;50.916;13.352;2022-09-09T04:45:03;18.00;99.90
19088;DHT22;9676;50.916;13.352;2022-09-09T04:47:54;18.00;99.90
19088;DHT22;9676;50.916;13.352;2022-09-09T04:50:44;18.00;99.90
19088;DHT22;9676;50.916;13.352;2022-09-09T04:53:44;18.00;99.90
19088;DHT22;9676;50.916;13.352;2022-09-09T04:56:34;18.10;99.90
19088;DHT22;9676;50.916;13.352;2022-09-09T04:59:24;18.10;99.90
19088;DHT22;9676;50.916;13.352;2022-09-09T05:02:16;18.10;99.90
19088;DHT22;9676;50.916;13.352;2022-09-09T05:05:06;18.10;99.90
19088;DHT22;9676;50.916;13.352;2022-09-09T05:08:01;18.10;99.90
19088;DHT22;9676;50.916;13.352;2022-09-09T05:10:52;18.20;99.90
19088;DHT22;9676;50.916;13.352;2022-09-09T05:13:43;18.20;99.90
19088;DHT22;9676;50.916;13.352;2022-09-09T05:16:33;18.30;99.90
19088;DHT22;9676;50.916;13.352;2022-09-09T05:19:22;18.40;99.90
19088;DHT22;9676;50.916;13.352;2022-09-09T05:22:18;18.50;99.90
19088;DHT22;9676;50.916;13.352;2022-09-09T05:25:09;18.50;99.90
19088;DHT22;9676;50.916;13.352;2022-09-09T05:28:01;18.60;99.90
19088;DHT22;9676;50.916;13.352;2022-09-09T05:30:58;18.70;99.90
19088;DHT22;9676;50.916;13.352;2022-09-09T05:33:50;18.80;99.90
19088;DHT22;9676;50.916;13.352;2022-09-09T05:36:40;18.90;99.90
19088;DHT22;9676;50.916;13.352;2022-09-09T05:39:30;19.00;99.90
19088;DHT22;9676;50.916;13.352;2022-09-09T05:42:20;19.10;99.90
19088;DHT22;9676;50.916;13.352;2022-09-09T05:45:11;19.20;99.90
19088;DHT22;9676;50.916;13.352;2022-09-09T05:48:01;19.30;99.90
19088;DHT22;9676;50.916;13.352;2022-09-09T05:50:53;19.40;99.90
19088;DHT22;9676;50.916;13.352;2022-09-09T05:53:44;19.40;99.90
19088;DHT22;9676;50.916;13.352;2022-09-09T05:56:34;19.50;99.90
19088;DHT22;9676;50.916;13.352;2022-09-09T05:59:24;19.60;99.90
19088;DHT22;9676;50.916;13.352;2022-09-09T06:02:17;19.70;99.90
19088;DHT22;9676;50.916;13.352;2022-09-09T06:05:07;19.80;99.90
19088;DHT22;9676;50.916;13.352;2022-09-09T06:07:58;20.00;99.90
19088;DHT22;9676;50.916;13.352;2022-09-09T06:10:48;20.10;99.90
19088;DHT22;9676;50.916;13.352;2022-09-09T06:13:38;20.20;99.90
19088;DHT22;9676;50.916;13.352;2022-09-09T06:16:29;20.30;99.90
19088;DHT22;9676;50.916;13.352;2022-09-09T06:19:22;20.40;99.90
19088;DHT22;9676;50.916;13.352;2022-09-09T06:22:17;20.50;99.90
19088;DHT22;9676;50.916;13.352;2022-09-09T06:25:08;20.60;99.90
19088;DHT22;9676;50.916;13.352;2022-09-09T06:27:59;20.70;99.90
19088;DHT22;9676;50.916;13.352;2022-09-09T06:30:57;20.80;99.90
19088;DHT22;9676;50.916;13.352;2022-09-09T06:33:49;20.90;99.90
19088;DHT22;9676;50.916;13.352;2022-09-09T06:36:42;21.10;99.90
19088;DHT22;9676;50.916;13.352;2022-09-09T06:39:32;21.40;99.90
19088;DHT22;9676;50.916;13.352;2022-09-09T06:42:22;21.80;99.90
19088;DHT22;9676;50.916;13.352;2022-09-09T06:45:37;22.30;99.90
19088;DHT22;9676;50.916;13.352;2022-09-09T06:48:28;23.00;99.90
19088;DHT22;9676;50.916;13.352;2022-09-09T06:51:20;23.60;99.90
19088;DHT22;9676;50.916;13.352;2022-09-09T06:54:12;24.40;99.90
19088;DHT22;9676;50.916;13.352;2022-09-09T06:57:05;25.00;99.90
19088;DHT22;9676;50.916;13.352;2022-09-09T07:00:17;25.70;99.90
19088;DHT22;9676;50.916;13.352;2022-09-09T07:03:06;26.50;99.90
19088;DHT22;9676;50.916;13.352;2022-09-09T07:05:57;27.10;99.90
19088;DHT22;9676;50.916;13.352;2022-09-09T07:08:50;27.70;99.90
19088;DHT22;9676;50.916;13.352;2022-09-09T07:11:49;28.30;99.90
19088;DHT22;9676;50.916;13.352;2022-09-09T07:14:42;28.60;97.40
19088;DHT22;9676;50.916;13.352;2022-09-09T07:17:31;28.70;93.80
19088;DHT22;9676;50.916;13.352;2022-09-09T07:20:21;28.70;91.20
19088;DHT22;9676;50.916;13.352;2022-09-09T07:23:11;28.60;88.90
19088;DHT22;9676;50.916;13.352;2022-09-09T07:26:00;28.40;86.10
19088;DHT22;9676;50.916;13.352;2022-09-09T07:28:52;28.10;84.50
19088;DHT22;9676;50.916;13.352;2022-09-09T07:31:43;27.80;82.70
19088;DHT22;9676;50.916;13.352;2022-09-09T07:34:37;27.50;82.20
19088;DHT22;9676;50.916;13.352;2022-09-09T07:37:26;27.20;81.70
19088;DHT22;9676;50.916;13.352;2022-09-09T07:40:16;26.80;81.30
19088;DHT22;9676;50.916;13.352;2022-09-09T07:43:05;26.50;81.30
19088;DHT22;9676;50.916;13.352;2022-09-09T07:45:59;26.30;81.90
19088;DHT22;9676;50.916;13.352;2022-09-09T07:48:52;26.00;81.60
19088;DHT22;9676;50.916;13.352;2022-09-09T07:51:47;25.90;82.50
19088;DHT22;9676;50.916;13.352;2022-09-09T07:54:38;25.70;83.20
19088;DHT22;9676;50.916;13.352;2022-09-09T07:57:28;25.60;84.10
19088;DHT22;9676;50.916;13.352;2022-09-09T08:00:18;25.50;85.60
19088;DHT22;9676;50.916;13.352;2022-09-09T08:03:15;25.50;86.80
19088;DHT22;9676;50.916;13.352;2022-09-09T08:06:06;25.60;87.30
19088;DHT22;9676;50.916;13.352;2022-09-09T08:08:57;25.70;88.30
19088;DHT22;9676;50.916;13.352;2022-09-09T08:11:47;25.80;89.00
19088;DHT22;9676;50.916;13.352;2022-09-09T08:14:37;26.00;89.40
19088;DHT22;9676;50.916;13.352;2022-09-09T08:17:28;26.10;88.00
19088;DHT22;9676;50.916;13.352;2022-09-09T08:20:21;26.20;87.10
19088;DHT22;9676;50.916;13.352;2022-09-09T08:23:12;26.40;85.90
19088;DHT22;9676;50.916;13.352;2022-09-09T08:26:05;26.40;85.30
19088;DHT22;9676;50.916;13.352;2022-09-09T08:28:58;26.40;83.50
19088;DHT22;9676;50.916;13.352;2022-09-09T08:31:50;26.40;83.00
19088;DHT22;9676;50.916;13.352;2022-09-09T08:34:42;26.40;82.10
19088;DHT22;9676;50.916;13.352;2022-09-09T08:37:39;26.30;81.40
19088;DHT22;9676;50.916;13.352;2022-09-09T08:40:30;26.30;80.60
19088;DHT22;9676;50.916;13.352;2022-09-09T08:43:23;26.10;80.10
19088;DHT22;9676;50.916;13.352;2022-09-09T08:46:16;26.10;80.10
19088;DHT22;9676;50.916;13.352;2022-09-09T08:49:38;25.90;79.50
19088;DHT22;9676;50.916;13.352;2022-09-09T08:52:52;25.80;78.90
19088;DHT22;9676;50.916;13.352;2022-09-09T08:55:47;25.70;79.40
19088;DHT22;9676;50.916;13.352;2022-09-09T08:58:45;25.60;79.90
19088;DHT22;9676;50.916;13.352;2022-09-09T09:01:59;25.60;79.70
19088;DHT22;9676;50.916;13.352;2022-09-09T09:05:11;25.60;79.70
19088;DHT22;9676;50.916;13.352;2022-09-09T09:08:13;25.50;80.10
19088;DHT22;9676;50.916;13.352;2022-09-09T09:11:07;25.60;80.30
19088;DHT22;9676;50.916;13.352;2022-09-09T09:14:00;25.50;81.00
19088;DHT22;9676;50.916;13.352;2022-09-09T09:16:56;25.50;80.60
19088;DHT22;9676;50.916;13.352;2022-09-09T09:19:48;25.60;81.60
19088;DHT22;9676;50.916;13.352;2022-09-09T09:22:44;25.60;82.40
19088;DHT22;9676;50.916;13.352;2022-09-09T09:25:41;25.70;82.70
19088;DHT22;9676;50.916;13.352;2022-09-09T09:28:34;25.90;82.60
19088;DHT22;9676;50.916;13.352;2022-09-09T09:31:33;26.00;83.40
19088;DHT22;9676;50.916;13.352;2022-09-09T09:34:23;26.10;83.00
19088;DHT22;9676;50.916;13.352;2022-09-09T09:37:17;26.30;83.10
19088;DHT22;9676;50.916;13.352;2022-09-09T09:40:14;26.40;82.80
19088;DHT22;9676;50.916;13.352;2022-09-09T09:43:18;26.60;83.70
19088;DHT22;9676;50.916;13.352;2022-09-09T09:46:20;26.90;83.00
19088;DHT22;9676;50.916;13.352;2022-09-09T09:49:12;27.20;85.80
19088;DHT22;9676;50.916;13.352;2022-09-09T09:52:05;27.80;91.30
19088;DHT22;9676;50.916;13.352;2022-09-09T09:54:58;28.60;93.10
19088;DHT22;9676;50.916;13.352;2022-09-09T09:58:01;29.60;94.20
19088;DHT22;9676;50.916;13.352;2022-09-09T10:01:01;30.80;92.90
19088;DHT22;9676;50.916;13.352;2022-09-09T10:03:52;31.90;92.90
19088;DHT22;9676;50.916;13.352;2022-09-09T10:06:42;32.80;90.90
19088;DHT22;9676;50.916;13.352;2022-09-09T10:09:31;33.50;85.40
19088;DHT22;9676;50.916;13.352;2022-09-09T10:12:30;33.90;79.50
19088;DHT22;9676;50.916;13.352;2022-09-09T10:15:33;34.10;73.10
19088;DHT22;9676;50.916;13.352;2022-09-09T10:18:51;34.00;70.30
19088;DHT22;9676;50.916;13.352;2022-09-09T10:22:04;33.90;68.40
19088;DHT22;9676;50.916;13.352;2022-09-09T10:25:23;33.60;66.80
19088;DHT22;9676;50.916;13.352;2022-09-09T10:28:39;33.20;66.00
19088;DHT22;9676;50.916;13.352;2022-09-09T10:31:57;33.00;66.10
19088;DHT22;9676;50.916;13.352;2022-09-09T10:35:00;32.70;66.00
19088;DHT22;9676;50.916;13.352;2022-09-09T10:38:11;32.50;65.90
19088;DHT22;9676;50.916;13.352;2022-09-09T10:41:17;32.30;64.80
19088;DHT22;9676;50.916;13.352;2022-09-09T10:44:35;32.00;64.20
19088;DHT22;9676;50.916;13.352;2022-09-09T10:47:44;31.80;63.40
19088;DHT22;9676;50.916;13.352;2022-09-09T10:50:51;31.60;64.70
19088;DHT22;9676;50.916;13.352;2022-09-09T10:54:03;31.60;66.90
19088;DHT22;9676;50.916;13.352;2022-09-09T10:57:11;31.90;68.80
19088;DHT22;9676;50.916;13.352;2022-09-09T11:00:10;32.40;69.30
19088;DHT22;9676;50.916;13.352;2022-09-09T11:03:05;32.80;68.60
19088;DHT22;9676;50.916;13.352;2022-09-09T11:06:01;33.00;66.80
19088;DHT22;9676;50.916;13.352;2022-09-09T11:08:55;33.00;64.30
19088;DHT22;9676;50.916;13.352;2022-09-09T11:11:51;33.00;65.50
19088;DHT22;9676;50.916;13.352;2022-09-09T11:14:43;33.10;65.40
19088;DHT22;9676;50.916;13.352;2022-09-09T11:17:40;33.30;66.30
19088;DHT22;9676;50.916;13.352;2022-09-09T11:20:34;33.60;64.80
19088;DHT22;9676;50.916;13.352;2022-09-09T11:23:29;33.70;65.60
19088;DHT22;9676;50.916;13.352;2022-09-09T11:26:32;33.80;63.60
19088;DHT22;9676;50.916;13.352;2022-09-09T11:30:02;33.70;61.40
19088;DHT22;9676;50.916;13.352;2022-09-09T11:36:38;33.30;58.40
19088;DHT22;9676;50.916;13.352;2022-09-09T11:40:03;32.80;57.50
19088;DHT22;9676;50.916;13.352;2022-09-09T11:43:03;32.40;57.20
19088;DHT22;9676;50.916;13.352;2022-09-09T11:45:55;32.00;57.20
19088;DHT22;9676;50.916;13.352;2022-09-09T11:48:59;31.60;57.20
19088;DHT22;9676;50.916;13.352;2022-09-09T11:51:49;31.20;56.40
19088;DHT22;9676;50.916;13.352;2022-09-09T11:54:46;31.00;57.10
19088;DHT22;9676;50.916;13.352;2022-09-09T11:57:38;30.70;56.40
19088;DHT22;9676;50.916;13.352;2022-09-09T12:00:34;30.40;57.10
19088;DHT22;9676;50.916;13.352;2022-09-09T12:03:39;30.20;58.10
19088;DHT22;9676;50.916;13.352;2022-09-09T12:06:32;30.00;57.40
19088;DHT22;9676;50.916;13.352;2022-09-09T12:09:27;29.90;58.30
19088;DHT22;9676;50.916;13.352;2022-09-09T12:12:26;29.80;58.00
19088;DHT22;9676;50.916;13.352;2022-09-09T12:15:25;29.80;57.90
19088;DHT22;9676;50.916;13.352;2022-09-09T12:18:22;29.70;57.40
19088;DHT22;9676;50.916;13.352;2022-09-09T12:21:19;29.50;57.50
19088;DHT22;9676;50.916;13.352;2022-09-09T12:24:21;29.50;57.50
19088;DHT22;9676;50.916;13.352;2022-09-09T12:27:19;29.40;57.70
19088;DHT22;9676;50.916;13.352;2022-09-09T12:30:15;29.20;57.80
19088;DHT22;9676;50.916;13.352;2022-09-09T12:33:11;29.10;57.60
19088;DHT22;9676;50.916;13.352;2022-09-09T12:36:04;29.00;57.20
19088;DHT22;9676;50.916;13.352;2022-09-09T12:38:56;28.90;57.50
19088;DHT22;9676;50.916;13.352;2022-09-09T12:41:52;28.70;57.50
19088;DHT22;9676;50.916;13.352;2022-09-09T12:44:52;28.60;57.10
19088;DHT22;9676;50.916;13.352;2022-09-09T12:47:46;28.60;56.90
19088;DHT22;9676;50.916;13.352;2022-09-09T12:50:44;28.50;57.10
19088;DHT22;9676;50.916;13.352;2022-09-09T12:53:37;28.40;57.00
19088;DHT22;9676;50.916;13.352;2022-09-09T12:56:28;28.20;57.30
19088;DHT22;9676;50.916;13.352;2022-09-09T12:59:23;28.10;57.50
19088;DHT22;9676;50.916;13.352;2022-09-09T13:02:20;28.10;57.80
19088;DHT22;9676;50.916;13.352;2022-09-09T13:05:15;28.10;58.10
19088;DHT22;9676;50.916;13.352;2022-09-09T13:08:09;28.10;58.20
19088;DHT22;9676;50.916;13.352;2022-09-09T13:11:02;28.10;58.10
19088;DHT22;9676;50.916;13.352;2022-09-09T13:13:55;28.20;58.40
19088;DHT22;9676;50.916;13.352;2022-09-09T13:16:55;28.20;58.30
19088;DHT22;9676;50.916;13.352;2022-09-09T13:19:46;28.20;58.00
19088;DHT22;9676;50.916;13.352;2022-09-09T13:22:38;28.20;58.30
19088;DHT22;9676;50.916;13.352;2022-09-09T13:25:30;28.20;58.30
19088;DHT22;9676;50.916;13.352;2022-09-09T13:28:29;28.20;58.30
19088;DHT22;9676;50.916;13.352;2022-09-09T13:31:22;28.30;58.30
19088;DHT22;9676;50.916;13.352;2022-09-09T13:34:27;28.30;58.00
19088;DHT22;9676;50.916;13.352;2022-09-09T13:37:22;28.20;57.40
19088;DHT22;9676;50.916;13.352;2022-09-09T13:40:18;28.20;57.50
19088;DHT22;9676;50.916;13.352;2022-09-09T13:43:17;28.10;57.10
19088;DHT22;9676;50.916;13.352;2022-09-09T13:46:32;28.00;57.00
19088;DHT22;9676;50.916;13.352;2022-09-09T13:49:23;28.00;57.00
19088;DHT22;9676;50.916;13.352;2022-09-09T13:52:13;27.90;57.40
19088;DHT22;9676;50.916;13.352;2022-09-09T13:55:05;27.90;57.50
19088;DHT22;9676;50.916;13.352;2022-09-09T13:57:57;27.80;57.50
19088;DHT22;9676;50.916;13.352;2022-09-09T14:00:49;27.80;57.50
19088;DHT22;9676;50.916;13.352;2022-09-09T14:03:39;27.70;57.50
19088;DHT22;9676;50.916;13.352;2022-09-09T14:06:29;27.70;58.20
19088;DHT22;9676;50.916;13.352;2022-09-09T14:09:20;27.70;57.80
19088;DHT22;9676;50.916;13.352;2022-09-09T14:12:11;27.70;57.80
19088;DHT22;9676;50.916;13.352;2022-09-09T14:15:01;27.70;57.90
19088;DHT22;9676;50.916;13.352;2022-09-09T14:17:52;27.70;58.10
19088;DHT22;9676;50.916;13.352;2022-09-09T14:20:42;27.80;58.30
19088;DHT22;9676;50.916;13.352;2022-09-09T14:23:31;27.90;58.30
19088;DHT22;9676;50.916;13.352;2022-09-09T14:26:21;27.90;58.20
19088;DHT22;9676;50.916;13.352;2022-09-09T14:29:11;27.90;58.00
19088;DHT22;9676;50.916;13.352;2022-09-09T14:32:00;28.00;58.10
19088;DHT22;9676;50.916;13.352;2022-09-09T14:34:51;28.00;58.10
19088;DHT22;9676;50.916;13.352;2022-09-09T14:37:41;28.10;58.00
19088;DHT22;9676;50.916;13.352;2022-09-09T14:40:31;28.10;57.80
19088;DHT22;9676;50.916;13.352;2022-09-09T14:43:21;28.10;57.60
19088;DHT22;9676;50.916;13.352;2022-09-09T14:46:12;28.10;57.40
19088;DHT22;9676;50.916;13.352;2022-09-09T14:49:03;28.00;57.10
19088;DHT22;9676;50.916;13.352;2022-09-09T14:51:53;27.90;56.90
19088;DHT22;9676;50.916;13.352;2022-09-09T14:54:43;27.80;56.70
19088;DHT22;9676;50.916;13.352;2022-09-09T14:57:32;27.70;56.70
19088;DHT22;9676;50.916;13.352;2022-09-09T15:00:22;27.70;56.80
19088;DHT22;9676;50.916;13.352;2022-09-09T15:03:17;27.60;56.90
19088;DHT22;9676;50.916;13.352;2022-09-09T15:06:07;27.60;57.00
19088;DHT22;9676;50.916;13.352;2022-09-09T15:08:59;27.50;57.00
19088;DHT22;9676;50.916;13.352;2022-09-09T15:11:48;27.50;57.00
19088;DHT22;9676;50.916;13.352;2022-09-09T15:14:38;27.50;56.90
19088;DHT22;9676;50.916;13.352;2022-09-09T15:17:27;27.40;56.80
19088;DHT22;9676;50.916;13.352;2022-09-09T15:20:17;27.40;56.50
19088;DHT22;9676;50.916;13.352;2022-09-09T15:23:06;27.40;56.40
19088;DHT22;9676;50.916;13.352;2022-09-09T15:25:58;27.30;56.20
19088;DHT22;9676;50.916;13.352;2022-09-09T15:28:48;27.20;56.00
19088;DHT22;9676;50.916;13.352;2022-09-09T15:31:38;27.10;55.90
19088;DHT22;9676;50.916;13.352;2022-09-09T15:34:28;27.00;55.90
19088;DHT22;9676;50.916;13.352;2022-09-09T15:37:17;26.90;55.90
19088;DHT22;9676;50.916;13.352;2022-09-09T15:40:07;26.80;56.00
19088;DHT22;9676;50.916;13.352;2022-09-09T15:42:59;26.80;56.00
19088;DHT22;9676;50.916;13.352;2022-09-09T15:45:53;26.70;56.00
19088;DHT22;9676;50.916;13.352;2022-09-09T15:48:47;26.60;56.10
19088;DHT22;9676;50.916;13.352;2022-09-09T15:51:42;26.60;56.20
19088;DHT22;9676;50.916;13.352;2022-09-09T15:54:34;26.50;57.00
19088;DHT22;9676;50.916;13.352;2022-09-09T15:57:24;26.40;56.30
19088;DHT22;9676;50.916;13.352;2022-09-09T16:00:16;26.40;56.30
19088;DHT22;9676;50.916;13.352;2022-09-09T16:03:06;26.30;56.30
19088;DHT22;9676;50.916;13.352;2022-09-09T16:05:55;26.20;56.30
19088;DHT22;9676;50.916;13.352;2022-09-09T16:08:45;26.10;56.30
19088;DHT22;9676;50.916;13.352;2022-09-09T16:11:38;26.00;56.30
19088;DHT22;9676;50.916;13.352;2022-09-09T16:14:28;26.00;56.50
19088;DHT22;9676;50.916;13.352;2022-09-09T16:17:23;25.90;56.60
19088;DHT22;9676;50.916;13.352;2022-09-09T16:20:12;25.80;56.70
19088;DHT22;9676;50.916;13.352;2022-09-09T16:23:02;25.80;56.80
19088;DHT22;9676;50.916;13.352;2022-09-09T16:25:53;25.70;56.80
19088;DHT22;9676;50.916;13.352;2022-09-09T16:28:43;25.60;56.90
19088;DHT22;9676;50.916;13.352;2022-09-09T16:31:34;25.60;57.00
19088;DHT22;9676;50.916;13.352;2022-09-09T16:34:25;25.60;57.10
19088;DHT22;9676;50.916;13.352;2022-09-09T16:37:14;25.50;56.90
19088;DHT22;9676;50.916;13.352;2022-09-09T16:40:04;25.50;56.90
19088;DHT22;9676;50.916;13.352;2022-09-09T16:42:55;25.50;56.80
19088;DHT22;9676;50.916;13.352;2022-09-09T16:45:45;25.40;56.60
19088;DHT22;9676;50.916;13.352;2022-09-09T16:48:34;25.40;56.50
19088;DHT22;9676;50.916;13.352;2022-09-09T16:51:27;25.30;56.40
19088;DHT22;9676;50.916;13.352;2022-09-09T16:54:17;25.20;56.30
19088;DHT22;9676;50.916;13.352;2022-09-09T16:57:07;25.20;56.40
19088;DHT22;9676;50.916;13.352;2022-09-09T16:59:57;25.10;56.30
19088;DHT22;9676;50.916;13.352;2022-09-09T17:02:47;25.00;56.30
19088;DHT22;9676;50.916;13.352;2022-09-09T17:05:39;24.90;56.30
19088;DHT22;9676;50.916;13.352;2022-09-09T17:08:30;24.80;56.20
19088;DHT22;9676;50.916;13.352;2022-09-09T17:11:21;24.70;56.20
19088;DHT22;9676;50.916;13.352;2022-09-09T17:14:14;24.60;56.20
19088;DHT22;9676;50.916;13.352;2022-09-09T17:17:04;24.50;56.20
19088;DHT22;9676;50.916;13.352;2022-09-09T17:20:14;24.40;56.20
19088;DHT22;9676;50.916;13.352;2022-09-09T17:23:03;24.30;56.20
19088;DHT22;9676;50.916;13.352;2022-09-09T17:25:58;24.20;56.20
19088;DHT22;9676;50.916;13.352;2022-09-09T17:28:47;24.10;56.10
19088;DHT22;9676;50.916;13.352;2022-09-09T17:31:37;23.90;56.00
19088;DHT22;9676;50.916;13.352;2022-09-09T17:34:28;23.80;56.00
19088;DHT22;9676;50.916;13.352;2022-09-09T17:37:18;23.70;55.90
19088;DHT22;9676;50.916;13.352;2022-09-09T17:40:08;23.60;55.90
19088;DHT22;9676;50.916;13.352;2022-09-09T17:42:59;23.40;55.80
19088;DHT22;9676;50.916;13.352;2022-09-09T17:45:49;23.30;55.80
19088;DHT22;9676;50.916;13.352;2022-09-09T17:48:39;23.20;55.80
19088;DHT22;9676;50.916;13.352;2022-09-09T17:51:31;23.10;55.90
19088;DHT22;9676;50.916;13.352;2022-09-09T17:54:22;23.00;55.90
19088;DHT22;9676;50.916;13.352;2022-09-09T17:57:11;22.90;55.90
19088;DHT22;9676;50.916;13.352;2022-09-09T18:00:04;22.80;56.00
19088;DHT22;9676;50.916;13.352;2022-09-09T18:03:14;22.70;56.00
19088;DHT22;9676;50.916;13.352;2022-09-09T18:06:06;22.60;56.00
19088;DHT22;9676;50.916;13.352;2022-09-09T18:08:58;22.50;56.00
19088;DHT22;9676;50.916;13.352;2022-09-09T18:11:50;22.50;56.20
19088;DHT22;9676;50.916;13.352;2022-09-09T18:14:41;22.40;56.20
19088;DHT22;9676;50.916;13.352;2022-09-09T18:17:32;22.40;56.20
19088;DHT22;9676;50.916;13.352;2022-09-09T18:20:21;22.30;56.20
19088;DHT22;9676;50.916;13.352;2022-09-09T18:23:11;22.20;56.20
19088;DHT22;9676;50.916;13.352;2022-09-09T18:26:00;22.20;56.30